Time;durP1;ratioP1;P1;durP2;ratioP2;P2;SDS_P1;SDS_P2;PMS_P1;PMS_P2;Temp;Humidity;BMP_temperature;BMP_pressure;BME280_temperature;BME280_humidity;BME280_pressure;Samples;Min_cycle;Max_cycle;Signal;HPM_P1;HPM_P2
2022/05/20 00:01:12;;;;;;;10.77;4.90;;;21.50;99.90;;;;;;5046935;28;20189;-73
2022/05/20 00:03:39;;;;;;;6.27;5.50;;;21.60;99.90;;;;;;5045181;28;20228;-71
2022/05/20 00:06:05;;;;;;;6.00;5.40;;;21.60;99.90;;;;;;5046446;28;20456;-75
2022/05/20 00:08:31;;;;;;;7.10;5.53;;;21.60;99.90;;;;;;5046368;28;20417;-72
2022/05/20 00:10:57;;;;;;;6.50;5.30;;;21.60;99.90;;;;;;5045637;28;20913;-72
2022/05/20 00:13:25;;;;;;;6.13;5.40;;;21.50;99.90;;;;;;5046739;28;20412;-73
2022/05/20 00:15:51;;;;;;;8.50;5.73;;;21.50;99.90;;;;;;5026975;28;21045;-73
2022/05/20 00:18:17;;;;;;;6.90;5.30;;;21.40;99.90;;;;;;5046703;28;20829;-72
2022/05/20 00:20:42;;;;;;;5.67;5.13;;;21.40;99.90;;;;;;5046249;28;20474;-72
2022/05/20 00:23:08;;;;;;;7.40;6.33;;;21.40;99.90;;;;;;5046058;28;20182;-74
2022/05/20 00:25:46;;;;;;;6.70;6.10;;;21.50;99.90;;;;;;5045292;28;20194;-72
2022/05/20 00:28:13;;;;;;;8.03;5.53;;;21.40;99.90;;;;;;5046315;28;20171;-72
2022/05/20 00:30:39;;;;;;;6.30;5.73;;;21.40;99.90;;;;;;5046222;28;20417;-71
2022/05/20 00:33:05;;;;;;;8.30;5.67;;;21.20;99.90;;;;;;5046322;28;20424;-73
2022/05/20 00:35:31;;;;;;;6.47;5.70;;;21.20;99.90;;;;;;5045873;28;20505;-73
2022/05/20 00:37:57;;;;;;;6.13;5.57;;;21.10;99.90;;;;;;5045591;28;20425;-73
2022/05/20 00:40:24;;;;;;;6.40;5.80;;;21.10;99.90;;;;;;5045196;28;20178;-74
2022/05/20 00:42:50;;;;;;;7.37;6.67;;;21.10;99.90;;;;;;5046052;28;20192;-72
2022/05/20 00:45:17;;;;;;;5.83;5.23;;;21.10;99.90;;;;;;5046070;28;20547;-73
2022/05/20 00:47:43;;;;;;;7.33;6.53;;;21.10;99.90;;;;;;5046073;28;20182;-75
2022/05/20 00:50:15;;;;;;;8.60;6.30;;;21.10;99.90;;;;;;5046111;28;20416;-75
2022/05/20 00:52:44;;;;;;;7.43;6.73;;;21.00;99.90;;;;;;5045591;28;20167;-72
2022/05/20 00:55:13;;;;;;;7.67;5.87;;;20.80;99.90;;;;;;5045708;28;20441;-72
2022/05/20 00:57:44;;;;;;;8.80;6.47;;;20.70;99.90;;;;;;5046073;28;20439;-72
2022/05/20 01:00:15;;;;;;;6.93;6.13;;;20.70;99.90;;;;;;5045850;28;20424;-72
2022/05/20 01:02:42;;;;;;;7.70;6.30;;;20.70;99.90;;;;;;5045541;28;20432;-71
2022/05/20 01:05:45;;;;;;;6.33;5.73;;;20.60;99.90;;;;;;5045617;28;20460;-76
2022/05/20 01:08:17;;;;;;;6.17;5.57;;;20.60;99.90;;;;;;5045466;28;20426;-73
2022/05/20 01:10:43;;;;;;;7.53;6.23;;;20.60;99.90;;;;;;5044783;28;20429;-73
2022/05/20 01:13:11;;;;;;;6.33;5.40;;;20.50;99.90;;;;;;5045383;28;20769;-72
2022/05/20 01:15:37;;;;;;;8.10;6.47;;;20.50;99.90;;;;;;5045630;28;21340;-76
2022/05/20 01:18:03;;;;;;;7.83;6.30;;;20.50;99.90;;;;;;5045218;28;20421;-73
2022/05/20 01:20:32;;;;;;;7.30;6.33;;;20.50;99.90;;;;;;5045333;28;20243;-77
2022/05/20 01:23:04;;;;;;;7.13;6.43;;;20.40;99.90;;;;;;5045624;28;20424;-72
2022/05/20 01:25:30;;;;;;;8.63;6.60;;;20.40;99.90;;;;;;5044325;28;20472;-72
2022/05/20 01:27:57;;;;;;;6.20;5.60;;;20.20;99.90;;;;;;5045513;28;20409;-77
2022/05/20 01:30:27;;;;;;;7.17;6.20;;;20.20;99.90;;;;;;5043751;28;20427;-74
2022/05/20 01:32:54;;;;;;;7.23;6.07;;;20.20;99.90;;;;;;5045278;28;20425;-73
2022/05/20 01:35:34;;;;;;;9.40;6.17;;;20.10;99.90;;;;;;5044736;28;20437;-74
2022/05/20 01:37:59;;;;;;;9.00;5.93;;;20.10;99.90;;;;;;5044776;28;20984;-72
2022/05/20 01:40:27;;;;;;;12.40;5.83;;;20.10;99.90;;;;;;5026872;28;20424;-76
2022/05/20 01:43:02;;;;;;;8.60;6.67;;;20.10;99.90;;;;;;5044513;28;20233;-76
2022/05/20 01:45:46;;;;;;;6.10;5.50;;;20.10;99.90;;;;;;5042934;28;20460;-74
2022/05/20 01:48:16;;;;;;;7.80;6.47;;;20.10;99.90;;;;;;5044607;28;20413;-73
2022/05/20 01:51:04;;;;;;;9.00;6.10;;;20.10;99.90;;;;;;5045090;28;20408;-75
2022/05/20 01:53:37;;;;;;;6.60;5.70;;;20.20;99.90;;;;;;5045438;28;20420;-72
2022/05/20 01:56:17;;;;;;;9.30;6.07;;;20.10;99.90;;;;;;5045089;28;20448;-76
2022/05/20 01:58:53;;;;;;;7.27;6.33;;;20.00;99.90;;;;;;5045479;28;20460;-74
2022/05/20 02:01:38;;;;;;;7.33;6.40;;;20.00;99.90;;;;;;5044257;28;20493;-73
2022/05/20 02:04:14;;;;;;;11.90;6.40;;;20.00;99.90;;;;;;5027223;28;20835;-73
2022/05/20 02:06:43;;;;;;;9.43;6.60;;;20.00;99.90;;;;;;5045267;28;20464;-73
2022/05/20 02:09:28;;;;;;;9.90;6.20;;;19.80;99.90;;;;;;5027204;28;20421;-73
2022/05/20 02:11:55;;;;;;;8.70;5.73;;;19.80;99.90;;;;;;5044767;28;20495;-72
2022/05/20 02:14:41;;;;;;;10.20;6.73;;;19.70;99.90;;;;;;5045556;28;20417;-73
2022/05/20 02:17:13;;;;;;;9.30;7.73;;;19.70;99.90;;;;;;5044859;28;20424;-73
2022/05/20 02:19:54;;;;;;;6.20;5.60;;;19.70;99.90;;;;;;5045512;28;20432;-74
2022/05/20 02:22:28;;;;;;;11.50;7.17;;;19.80;99.90;;;;;;5045443;28;20458;-74
2022/05/20 02:24:55;;;;;;;6.93;6.23;;;19.70;99.90;;;;;;5044833;28;20437;-74
2022/05/20 02:27:28;;;;;;;8.33;6.70;;;19.60;99.90;;;;;;5027519;28;20413;-73
2022/05/20 02:30:04;;;;;;;7.17;6.57;;;19.60;99.90;;;;;;5045582;28;20437;-74
2022/05/20 02:32:36;;;;;;;8.60;7.23;;;19.50;99.90;;;;;;5044776;28;20491;-73
2022/05/20 02:35:01;;;;;;;7.17;6.30;;;19.40;99.90;;;;;;5044852;28;20468;-72
2022/05/20 02:37:33;;;;;;;6.90;6.20;;;19.50;99.90;;;;;;5027076;28;20949;-73
2022/05/20 02:39:59;;;;;;;7.00;6.47;;;19.40;99.90;;;;;;5044729;28;20189;-74
2022/05/20 02:42:28;;;;;;;8.50;6.80;;;19.30;99.90;;;;;;5044496;28;20898;-73
2022/05/20 02:44:55;;;;;;;9.13;7.63;;;19.30;99.90;;;;;;5044618;28;20871;-71
2022/05/20 02:47:21;;;;;;;7.27;6.67;;;19.20;99.90;;;;;;5044518;28;20423;-73
2022/05/20 02:49:47;;;;;;;8.07;7.17;;;19.30;99.90;;;;;;5044995;28;21244;-74
2022/05/20 02:52:14;;;;;;;7.23;6.53;;;19.40;99.90;;;;;;5026514;28;21175;-73
2022/05/20 02:54:39;;;;;;;7.37;6.67;;;19.40;99.90;;;;;;5043998;28;20413;-76
2022/05/20 02:57:05;;;;;;;8.23;7.43;;;19.20;99.90;;;;;;5044713;28;20417;-74
2022/05/20 03:04:59;;;;;;;7.30;6.53;;;19.30;99.90;;;;;;5044653;28;20427;-74
2022/05/20 03:07:25;;;;;;;11.63;6.67;;;19.40;99.90;;;;;;5044732;28;20421;-74
2022/05/20 03:09:52;;;;;;;7.63;6.93;;;19.40;99.90;;;;;;5045183;28;20655;-71
2022/05/20 03:12:18;;;;;;;9.30;7.30;;;19.50;99.90;;;;;;5046124;28;20174;-72
2022/05/20 03:14:44;;;;;;;10.33;6.90;;;19.60;99.90;;;;;;5048622;28;20464;-72
2022/05/20 03:17:09;;;;;;;7.93;7.13;;;19.70;99.90;;;;;;5063605;22;20531;-76
2022/05/20 03:19:36;;;;;;;8.80;7.87;;;19.70;99.90;;;;;;5055838;28;20541;-71
2022/05/20 03:22:04;;;;;;;10.13;6.47;;;19.70;99.90;;;;;;5059455;28;20163;-71
2022/05/20 03:24:30;;;;;;;15.40;7.83;;;19.70;99.90;;;;;;5047162;28;20412;-73
2022/05/20 03:26:56;;;;;;;14.30;7.40;;;19.70;99.90;;;;;;5046344;28;20867;-73
2022/05/20 03:29:22;;;;;;;8.37;6.23;;;19.60;99.90;;;;;;5065978;28;20465;-72
2022/05/20 03:31:48;;;;;;;12.80;7.23;;;19.70;99.90;;;;;;5067211;28;20178;-72
2022/05/20 03:34:14;;;;;;;6.80;6.20;;;19.80;99.90;;;;;;5046938;28;20417;-77
2022/05/20 03:36:43;;;;;;;8.63;7.40;;;19.80;99.90;;;;;;5047963;28;20435;-72
2022/05/20 03:39:11;;;;;;;9.07;7.67;;;19.90;99.90;;;;;;5065417;28;20420;-73
2022/05/20 03:41:38;;;;;;;7.83;7.00;;;19.90;99.90;;;;;;5059254;28;20410;-70
2022/05/20 03:44:05;;;;;;;8.83;7.43;;;19.90;99.90;;;;;;5056168;28;20932;-74
2022/05/20 03:46:32;;;;;;;7.80;6.80;;;20.00;99.90;;;;;;5066937;28;20860;-74
2022/05/20 03:49:00;;;;;;;7.23;6.40;;;20.00;99.90;;;;;;5063722;28;20431;-72
2022/05/20 03:51:26;;;;;;;8.07;6.67;;;20.00;99.90;;;;;;5059474;28;20659;-71
2022/05/20 03:53:52;;;;;;;8.10;6.43;;;20.00;99.90;;;;;;5047036;28;20405;-71
2022/05/20 03:56:18;;;;;;;10.87;7.10;;;20.10;99.90;;;;;;5046650;28;20436;-74
2022/05/20 03:58:43;;;;;;;9.03;7.77;;;20.10;99.90;;;;;;5046830;28;20182;-73
2022/05/20 04:03:55;;;;;;;8.30;7.47;;;20.00;99.90;;;;;;5061204;28;20181;-75
2022/05/20 04:06:22;;;;;;;8.37;7.47;;;20.10;99.90;;;;;;5048562;28;20463;-71
2022/05/20 04:08:48;;;;;;;7.90;5.87;;;20.10;99.90;;;;;;5054625;28;20190;-71
2022/05/20 04:11:14;;;;;;;9.83;7.80;;;20.20;99.90;;;;;;5051444;28;20787;-70
2022/05/20 04:13:41;;;;;;;8.60;7.77;;;20.20;99.90;;;;;;5046708;28;20416;-72
2022/05/20 04:16:09;;;;;;;9.40;8.33;;;20.20;99.90;;;;;;5045808;28;20221;-72
2022/05/20 04:18:35;;;;;;;9.50;7.03;;;20.10;99.90;;;;;;5057785;28;20834;-75
2022/05/20 04:21:02;;;;;;;9.80;7.10;;;20.10;99.90;;;;;;5053965;28;20413;-70
2022/05/20 04:23:27;;;;;;;8.50;7.67;;;20.20;99.90;;;;;;5063972;28;20177;-74
2022/05/20 04:25:53;;;;;;;11.93;6.80;;;20.20;99.90;;;;;;5050458;28;20534;-71
2022/05/20 04:28:18;;;;;;;8.03;7.20;;;20.20;99.90;;;;;;5046050;28;20216;-71
2022/05/20 04:30:44;;;;;;;7.63;6.93;;;20.10;99.90;;;;;;5046250;28;20167;-71
2022/05/20 04:33:10;;;;;;;7.53;6.90;;;20.20;99.90;;;;;;5056136;28;20303;-71
2022/05/20 04:35:36;;;;;;;7.97;7.10;;;20.20;99.90;;;;;;5046411;28;20527;-70
2022/05/20 04:38:02;;;;;;;7.93;6.90;;;20.20;99.90;;;;;;5049009;28;20241;-71
2022/05/20 04:40:28;;;;;;;7.90;7.20;;;20.20;99.90;;;;;;5046004;28;20417;-74
2022/05/20 04:48:23;;;;;;;7.47;6.70;;;20.30;99.90;;;;;;5046013;28;20508;-71
2022/05/20 04:50:49;;;;;;;8.33;7.20;;;20.40;99.90;;;;;;5045430;28;20467;-70
2022/05/20 04:54:49;;;;;;;7.60;6.90;;;20.40;99.90;;;;;;5047655;28;20220;-73
2022/05/20 04:56:00;;;;;;;6.20;5.60;;;20.40;99.90;;;;;;5056080;28;20285;-72
2022/05/20 04:58:26;;;;;;;7.10;6.40;;;20.40;99.90;;;;;;5045107;28;20523;-70
2022/05/20 05:00:54;;;;;;;7.03;6.43;;;20.50;99.90;;;;;;5051358;28;20174;-72
2022/05/20 05:03:19;;;;;;;7.43;6.57;;;20.50;99.90;;;;;;5046755;28;20671;-71
2022/05/20 05:05:45;;;;;;;7.50;5.83;;;20.60;99.90;;;;;;5048794;28;20486;-73
2022/05/20 05:08:10;;;;;;;7.40;6.80;;;20.70;99.90;;;;;;5057879;28;20543;-72
2022/05/20 05:10:36;;;;;;;7.30;6.07;;;20.70;99.90;;;;;;5045590;28;20232;-72
2022/05/20 05:13:02;;;;;;;7.97;6.13;;;20.70;99.90;;;;;;5045111;28;20185;-72
2022/05/20 05:15:28;;;;;;;7.00;6.20;;;20.90;99.90;;;;;;5042038;28;20205;-73
2022/05/20 05:18:09;;;;;;;7.20;6.43;;;21.10;99.90;;;;;;5065230;28;20453;-72
2022/05/20 05:20:39;;;;;;;6.10;5.40;;;21.10;99.90;;;;;;5062337;28;20182;-75
2022/05/20 05:23:05;;;;;;;7.07;6.07;;;21.20;99.90;;;;;;5057322;28;20412;-75
2022/05/20 05:25:33;;;;;;;6.13;5.53;;;21.30;99.90;;;;;;5057573;28;21022;-71
2022/05/20 05:27:59;;;;;;;9.27;6.70;;;21.30;99.90;;;;;;5061842;28;20194;-71
2022/05/20 05:30:26;;;;;;;7.27;6.17;;;21.30;99.90;;;;;;5053489;28;20431;-71
2022/05/20 05:32:52;;;;;;;7.50;5.80;;;21.30;99.90;;;;;;5059982;28;20417;-71
2022/05/20 05:35:21;;;;;;;6.30;5.70;;;21.50;99.90;;;;;;5054825;28;21012;-71
2022/05/20 05:37:47;;;;;;;6.07;5.43;;;21.60;99.90;;;;;;5054627;28;20199;-74
2022/05/20 05:40:20;;;;;;;7.43;5.63;;;21.70;99.90;;;;;;5036905;28;20433;-75
2022/05/20 05:42:46;;;;;;;6.37;5.77;;;21.90;99.90;;;;;;5054133;28;20417;-71
2022/05/20 05:45:14;;;;;;;5.90;5.40;;;22.00;99.90;;;;;;5055367;28;20484;-71
2022/05/20 05:47:41;;;;;;;6.40;5.80;;;22.10;99.90;;;;;;5054260;28;20206;-71
2022/05/20 05:50:07;;;;;;;6.27;5.70;;;22.10;99.90;;;;;;5055708;28;20523;-72
2022/05/20 05:52:33;;;;;;;10.37;6.90;;;22.30;99.90;;;;;;5057728;28;20456;-71
2022/05/20 05:55:01;;;;;;;7.40;5.77;;;22.40;99.90;;;;;;5053520;28;20451;-71
2022/05/20 05:57:28;;;;;;;7.80;5.90;;;22.50;99.90;;;;;;5053679;28;20289;-71
2022/05/20 05:59:54;;;;;;;6.50;5.90;;;22.70;99.90;;;;;;5054098;28;20813;-75
2022/05/20 06:02:21;;;;;;;6.63;5.43;;;22.70;99.90;;;;;;5057549;28;20507;-72
2022/05/20 06:04:47;;;;;;;6.93;5.90;;;22.90;99.90;;;;;;5056863;28;20435;-71
2022/05/20 06:07:16;;;;;;;8.30;5.90;;;22.80;99.90;;;;;;5037015;28;20793;-72
2022/05/20 06:10:24;;;;;;;5.80;5.27;;;22.80;99.90;;;;;;5056296;28;20221;-75
2022/05/20 06:12:50;;;;;;;5.40;5.00;;;23.00;99.90;;;;;;5056143;28;20443;-73
2022/05/20 06:15:19;;;;;;;7.03;5.10;;;23.00;99.90;;;;;;5060267;28;20468;-72
2022/05/20 06:17:44;;;;;;;7.37;5.20;;;23.10;99.90;;;;;;5050905;28;20200;-73
2022/05/20 06:20:11;;;;;;;5.53;4.57;;;23.10;99.90;;;;;;5038037;28;20424;-72
2022/05/20 06:22:37;;;;;;;7.50;5.07;;;23.20;99.90;;;;;;5063897;28;20181;-71
2022/05/20 06:25:04;;;;;;;6.87;5.33;;;23.30;99.90;;;;;;5056667;28;20429;-71
2022/05/20 06:27:31;;;;;;;7.67;4.93;;;23.40;99.90;;;;;;5050240;28;20239;-73
2022/05/20 06:29:57;;;;;;;6.03;5.50;;;23.60;99.90;;;;;;5053928;28;20836;-71
2022/05/20 06:32:22;;;;;;;7.60;5.87;;;23.70;99.90;;;;;;5057535;28;20463;-74
2022/05/20 06:40:19;;;;;;;8.17;5.67;;;24.00;99.90;;;;;;5055490;28;20411;-72
2022/05/20 06:42:44;;;;;;;6.20;5.03;;;24.10;99.90;;;;;;5059795;28;20431;-72
2022/05/20 06:45:12;;;;;;;6.13;4.77;;;24.20;99.90;;;;;;5055155;28;20459;-76
2022/05/20 06:47:39;;;;;;;5.60;4.57;;;24.20;99.90;;;;;;5053397;28;20178;-75
2022/05/20 06:50:06;;;;;;;7.20;4.50;;;24.10;99.90;;;;;;5062640;28;21518;-75
2022/05/20 06:52:32;;;;;;;5.83;4.73;;;24.30;99.90;;;;;;5050089;28;20445;-74
2022/05/20 06:54:58;;;;;;;5.90;5.27;;;24.50;99.90;;;;;;5059964;28;20820;-71
2022/05/20 06:57:24;;;;;;;4.60;4.13;;;24.60;99.90;;;;;;5048861;28;20205;-71
2022/05/20 06:59:51;;;;;;;4.60;4.20;;;24.50;99.90;;;;;;5050883;28;20186;-75
2022/05/20 07:02:17;;;;;;;5.30;4.80;;;24.60;99.90;;;;;;5052972;28;20507;-72
2022/05/20 07:04:42;;;;;;;5.13;4.63;;;24.80;99.90;;;;;;5063486;28;20502;-74
2022/05/20 07:07:08;;;;;;;7.10;4.70;;;25.00;99.90;;;;;;5048100;28;20427;-72
2022/05/20 07:09:33;;;;;;;5.53;4.80;;;25.00;99.90;;;;;;5054345;28;20178;-72
2022/05/20 07:11:59;;;;;;;4.23;3.87;;;25.10;99.90;;;;;;5060697;28;20185;-72
2022/05/20 07:14:25;;;;;;;4.10;3.80;;;25.10;99.90;;;;;;5062407;28;20301;-75
2022/05/20 07:16:51;;;;;;;6.37;5.03;;;25.20;99.90;;;;;;5054052;28;20227;-71
2022/05/20 07:19:17;;;;;;;6.23;5.00;;;25.30;99.90;;;;;;5045853;28;20440;-72
2022/05/20 07:21:43;;;;;;;4.90;4.50;;;25.20;99.90;;;;;;5049599;28;20191;-75
2022/05/20 07:24:09;;;;;;;5.60;4.93;;;25.30;99.90;;;;;;5057300;28;20776;-72
2022/05/20 07:26:35;;;;;;;6.57;5.07;;;25.40;99.90;;;;;;5057303;28;20214;-71
2022/05/20 07:29:02;;;;;;;6.40;5.10;;;25.60;99.90;;;;;;5063344;28;20446;-72
2022/05/20 07:31:28;;;;;;;4.60;4.20;;;25.60;99.90;;;;;;5054588;28;20413;-72
2022/05/20 07:33:54;;;;;;;4.70;4.20;;;25.60;99.90;;;;;;5043567;28;20459;-72
2022/05/20 07:36:20;;;;;;;5.57;4.40;;;25.60;99.90;;;;;;5057136;28;20464;-73
2022/05/20 07:38:47;;;;;;;5.47;4.33;;;25.60;99.90;;;;;;5054304;28;20847;-75
2022/05/20 07:41:13;;;;;;;4.63;4.33;;;25.70;99.90;;;;;;5046587;28;20924;-73
2022/05/20 07:43:38;;;;;;;5.60;4.60;;;25.90;99.90;;;;;;5046632;28;20423;-75
2022/05/20 07:46:05;;;;;;;5.30;4.57;;;26.00;99.90;;;;;;5058205;28;20467;-71
2022/05/20 07:48:30;;;;;;;5.07;4.23;;;26.00;99.90;;;;;;5050660;28;20185;-72
2022/05/20 07:51:19;;;;;;;4.87;4.37;;;26.30;99.90;;;;;;5043786;28;20420;-73
2022/05/20 07:53:59;;;;;;;5.90;4.40;;;26.50;99.90;;;;;;5045689;28;20174;-72
2022/05/20 07:56:30;;;;;;;6.00;4.07;;;26.40;99.90;;;;;;5058911;28;20550;-74
2022/05/20 07:59:24;;;;;;;5.47;4.33;;;26.60;99.90;;;;;;5045216;28;20662;-75
2022/05/20 08:01:52;;;;;;;4.13;3.73;;;26.60;99.90;;;;;;5056456;28;20417;-72
2022/05/20 08:07:09;;;;;;;4.60;4.20;;;26.90;99.90;;;;;;5051670;28;20498;-75
2022/05/20 08:09:34;;;;;;;5.00;4.50;;;26.90;99.90;;;;;;5050219;28;20413;-74
2022/05/20 08:12:00;;;;;;;5.07;4.57;;;27.00;99.90;;;;;;5062487;28;20507;-71
2022/05/20 08:14:27;;;;;;;8.77;4.80;;;27.20;99.90;;;;;;5047822;28;20202;-71
2022/05/20 08:16:53;;;;;;;5.40;4.90;;;27.30;99.90;;;;;;5062178;28;20475;-72
2022/05/20 08:19:19;;;;;;;5.90;4.30;;;27.40;99.90;;;;;;5058310;28;20424;-74
2022/05/20 08:21:45;;;;;;;6.80;4.20;;;27.40;99.90;;;;;;5064150;28;20423;-75
2022/05/20 08:24:10;;;;;;;5.53;5.00;;;27.10;99.90;;;;;;5050903;28;20182;-73
2022/05/20 08:26:36;;;;;;;5.97;4.60;;;27.00;99.90;;;;;;5059606;28;20560;-72
2022/05/20 08:29:03;;;;;;;5.30;4.20;;;27.00;99.90;;;;;;5066286;28;20194;-72
2022/05/20 08:31:28;;;;;;;7.83;4.20;;;27.00;99.90;;;;;;5057651;28;20257;-72
2022/05/20 08:33:54;;;;;;;9.87;4.53;;;27.00;99.90;;;;;;5049148;28;20608;-72
2022/05/20 08:36:20;;;;;;;6.00;4.53;;;27.10;99.90;;;;;;5065869;28;20289;-72
2022/05/20 08:38:47;;;;;;;7.63;4.60;;;27.40;99.90;;;;;;5053518;28;20824;-75
2022/05/20 08:41:23;;;;;;;6.53;4.50;;;27.40;99.60;;;;;;5059314;28;20417;-72
2022/05/20 08:43:50;;;;;;;5.80;4.37;;;27.40;99.90;;;;;;5046482;28;20466;-71
2022/05/20 08:46:20;;;;;;;5.20;4.27;;;27.50;99.90;;;;;;5057361;28;20463;-70
2022/05/20 08:48:48;;;;;;;5.40;4.90;;;27.70;99.90;;;;;;5045725;28;20417;-74
2022/05/20 08:51:14;;;;;;;4.97;4.20;;;27.80;99.70;;;;;;5059623;28;20924;-74
2022/05/20 08:53:44;;;;;;;4.83;4.43;;;27.70;99.30;;;;;;5057831;28;20412;-70
2022/05/20 08:56:15;;;;;;;11.57;5.07;;;27.80;99.90;;;;;;5062204;28;20202;-71
2022/05/20 08:58:50;;;;;;;5.67;5.03;;;28.00;99.90;;;;;;5055729;28;20411;-72
2022/05/20 09:01:44;;;;;;;5.87;4.40;;;28.20;99.20;;;;;;5046112;28;20988;-73
2022/05/20 09:04:24;;;;;;;7.60;4.77;;;28.40;98.50;;;;;;5036285;28;20424;-72
2022/05/20 09:07:02;;;;;;;7.43;4.63;;;28.30;98.30;;;;;;5055721;28;20468;-72
2022/05/20 09:09:52;;;;;;;10.43;5.27;;;28.40;98.20;;;;;;5053245;28;20821;-72
2022/05/20 09:12:39;;;;;;;4.70;4.30;;;28.50;99.90;;;;;;5033294;28;20435;-72
2022/05/20 09:18:16;;;;;;;6.27;4.60;;;28.60;97.40;;;;;;5052108;28;20409;-72
2022/05/20 09:20:44;;;;;;;4.60;4.20;;;29.00;96.50;;;;;;5059934;28;20855;-71
2022/05/20 09:23:12;;;;;;;9.43;4.40;;;29.00;98.10;;;;;;5064379;28;20423;-71
2022/05/20 09:26:00;;;;;;;7.13;4.30;;;29.10;95.70;;;;;;5053901;28;20547;-72
2022/05/20 09:28:26;;;;;;;8.27;4.80;;;29.30;96.60;;;;;;5056787;28;20923;-71
2022/05/20 09:31:01;;;;;;;5.80;4.70;;;29.40;97.00;;;;;;5064303;28;20409;-71
2022/05/20 09:33:30;;;;;;;8.27;4.77;;;29.30;95.10;;;;;;5061712;28;20169;-75
2022/05/20 09:35:58;;;;;;;6.57;4.77;;;29.10;94.80;;;;;;5064706;28;20815;-73
2022/05/20 09:38:29;;;;;;;4.97;4.57;;;29.20;95.20;;;;;;5056922;28;20417;-71
2022/05/20 09:40:55;;;;;;;5.97;4.50;;;29.10;94.50;;;;;;5044671;28;20424;-71
2022/05/20 09:43:25;;;;;;;6.53;4.80;;;29.30;93.80;;;;;;5044337;28;20417;-71
2022/05/20 09:45:51;;;;;;;5.50;4.73;;;29.40;94.60;;;;;;5044442;28;20260;-71
2022/05/20 09:48:47;;;;;;;6.10;4.53;;;29.40;94.00;;;;;;5051503;28;20970;-74
2022/05/20 09:51:21;;;;;;;4.83;4.40;;;29.60;95.20;;;;;;5051832;28;20427;-70
2022/05/20 09:54:29;;;;;;;6.27;5.10;;;29.70;94.10;;;;;;5052990;28;20444;-70
2022/05/20 09:57:05;;;;;;;6.67;5.00;;;29.80;92.50;;;;;;4997107;28;20445;-71
2022/05/20 10:00:05;;;;;;;8.00;4.60;;;29.60;92.80;;;;;;5051404;28;20420;-71
2022/05/20 10:02:39;;;;;;;6.43;4.73;;;29.70;93.70;;;;;;5049731;28;20409;-72
2022/05/20 10:05:26;;;;;;;6.27;4.60;;;29.90;92.50;;;;;;5047574;28;20408;-71
2022/05/20 10:08:13;;;;;;;5.67;4.50;;;30.10;93.30;;;;;;5051736;28;20420;-72
2022/05/20 10:10:59;;;;;;;5.97;5.03;;;30.00;92.20;;;;;;5047248;28;20423;-77
2022/05/20 10:13:53;;;;;;;4.87;4.07;;;30.00;93.70;;;;;;5055416;28;20895;-72
2022/05/20 10:16:41;;;;;;;4.73;4.23;;;30.20;91.40;;;;;;5063510;28;20498;-72
2022/05/20 10:19:30;;;;;;;6.83;4.17;;;30.50;91.70;;;;;;5059131;28;20490;-72
2022/05/20 10:22:22;;;;;;;5.90;5.07;;;30.30;91.30;;;;;;5050579;28;20416;-72
2022/05/20 10:25:12;;;;;;;5.37;4.67;;;30.40;90.50;;;;;;5050891;28;20502;-72
2022/05/20 10:28:01;;;;;;;5.67;5.10;;;30.20;91.00;;;;;;5060648;28;20401;-72
2022/05/20 10:33:42;;;;;;;6.53;4.60;;;30.80;90.00;;;;;;5060850;28;20397;-73
2022/05/20 10:36:24;;;;;;;5.77;4.10;;;30.50;89.60;;;;;;5050669;28;20429;-75
2022/05/20 10:38:56;;;;;;;7.63;4.97;;;30.60;88.50;;;;;;5056007;28;20676;-71
2022/05/20 10:41:45;;;;;;;5.83;4.50;;;30.70;89.10;;;;;;5050135;28;20419;-71
2022/05/20 10:50:40;;;;;;;9.00;3.97;;;31.10;80.60;;;;;;5062434;28;20412;-70
2022/05/20 10:53:20;;;;;;;6.00;4.93;;;31.10;79.90;;;;;;5053583;28;20487;-72
2022/05/20 10:56:39;;;;;;;6.93;3.80;;;31.00;81.10;;;;;;5048716;28;20490;-72
2022/05/20 10:59:39;;;;;;;5.67;3.97;;;31.10;79.90;;;;;;5008085;28;20425;-71
2022/05/20 11:02:41;;;;;;;6.67;4.10;;;31.10;77.40;;;;;;5044532;28;20411;-75
2022/05/20 11:05:26;;;;;;;5.70;4.80;;;31.30;78.50;;;;;;5054971;28;20409;-73
2022/05/20 11:07:51;;;;;;;5.30;4.47;;;31.40;75.90;;;;;;5044825;28;20421;-73
2022/05/20 11:10:17;;;;;;;4.50;3.57;;;31.60;79.30;;;;;;5060722;28;20510;-73
2022/05/20 11:12:54;;;;;;;4.70;3.73;;;31.90;74.60;;;;;;5053889;28;20554;-72
2022/05/20 11:15:45;;;;;;;8.90;4.23;;;31.90;74.30;;;;;;5057608;28;20189;-72
2022/05/20 11:18:36;;;;;;;9.43;5.47;;;32.10;76.00;;;;;;5049824;28;20433;-74
2022/05/20 11:21:24;;;;;;;5.93;4.10;;;32.40;73.00;;;;;;5054494;28;20424;-75
2022/05/20 11:24:06;;;;;;;5.10;3.60;;;33.50;73.40;;;;;;5057097;28;20413;-75
2022/05/20 11:26:47;;;;;;;4.10;3.70;;;34.80;65.00;;;;;;5042928;28;20456;-75
2022/05/20 11:29:27;;;;;;;4.10;3.70;;;35.90;64.60;;;;;;5046000;28;20412;-72
2022/05/20 11:32:05;;;;;;;9.17;3.57;;;36.60;59.50;;;;;;5046244;28;20427;-72
2022/05/20 11:35:02;;;;;;;5.37;3.70;;;37.70;55.60;;;;;;5052263;28;20735;-73
2022/05/20 11:37:39;;;;;;;7.60;3.80;;;37.90;56.40;;;;;;5056315;28;20444;-72
2022/05/20 11:40:33;;;;;;;4.60;3.40;;;35.90;56.80;;;;;;5049905;28;20502;-72
2022/05/20 11:43:32;;;;;;;6.33;3.90;;;36.80;54.90;;;;;;5054785;28;20405;-72
2022/05/20 11:46:23;;;;;;;5.80;3.97;;;37.00;54.50;;;;;;5051526;28;20473;-73
2022/05/20 11:49:18;;;;;;;4.20;3.33;;;38.40;54.00;;;;;;5056404;28;20413;-72
2022/05/20 11:52:07;;;;;;;5.57;3.70;;;38.90;52.40;;;;;;5039803;28;20426;-73
2022/05/20 11:54:47;;;;;;;10.13;4.07;;;38.60;52.70;;;;;;5021832;28;20489;-74
2022/05/20 11:57:18;;;;;;;3.63;3.27;;;38.70;49.50;;;;;;5054243;28;20460;-72
2022/05/20 12:00:10;;;;;;;4.30;3.17;;;39.80;50.10;;;;;;5049978;28;20658;-72
2022/05/20 12:02:53;;;;;;;7.33;4.20;;;39.00;49.90;;;;;;5045947;28;20428;-72
2022/05/20 12:05:24;;;;;;;7.27;3.43;;;38.90;48.30;;;;;;5058861;28;20404;-71
2022/05/20 12:07:50;;;;;;;4.73;3.10;;;38.80;49.30;;;;;;5054824;28;20410;-74
2022/05/20 12:10:30;;;;;;;4.83;3.30;;;39.00;51.10;;;;;;5052321;28;20415;-73
2022/05/20 12:13:16;;;;;;;4.70;3.50;;;39.80;49.10;;;;;;5053430;28;20503;-73
2022/05/20 12:15:43;;;;;;;4.27;3.30;;;40.60;46.50;;;;;;5054335;28;20464;-75
2022/05/20 12:24:50;;;;;;;5.03;3.50;;;40.50;45.00;;;;;;5046458;28;20411;-74
2022/05/20 12:27:22;;;;;;;4.70;3.30;;;40.50;44.50;;;;;;5045858;28;20446;-72
2022/05/20 12:30:06;;;;;;;6.47;3.63;;;41.00;44.40;;;;;;5046258;28;20478;-73
2022/05/20 12:32:34;;;;;;;5.80;3.70;;;40.90;43.60;;;;;;5057063;28;20404;-76
2022/05/20 12:35:18;;;;;;;8.40;3.63;;;40.90;43.30;;;;;;5065572;28;20411;-73
2022/05/20 12:37:43;;;;;;;7.50;3.67;;;40.60;43.00;;;;;;5060910;28;20400;-72
2022/05/20 12:40:16;;;;;;;4.70;3.43;;;40.60;45.00;;;;;;5065733;28;20396;-73
2022/05/20 12:45:16;;;;;;;7.67;3.50;;;40.60;42.50;;;;;;5041232;28;20541;-72
2022/05/20 12:47:42;;;;;;;3.83;3.00;;;40.60;42.90;;;;;;5046081;28;20494;-72
2022/05/20 12:50:21;;;;;;;4.13;3.37;;;41.20;41.60;;;;;;5045167;28;20181;-72
2022/05/20 12:52:50;;;;;;;5.97;3.40;;;41.00;40.20;;;;;;5045815;28;20185;-71
2022/05/20 12:55:45;;;;;;;6.77;3.50;;;41.20;40.20;;;;;;5025655;28;20413;-71
2022/05/20 12:58:14;;;;;;;4.43;3.00;;;40.20;41.40;;;;;;5007489;28;20918;-71
2022/05/20 13:00:47;;;;;;;5.53;3.63;;;40.70;39.30;;;;;;5024754;28;20464;-70
2022/05/20 13:03:24;;;;;;;7.50;3.73;;;40.60;39.50;;;;;;5025147;28;20440;-72
2022/05/20 13:05:58;;;;;;;6.00;3.10;;;40.80;39.90;;;;;;5025688;28;20925;-71
2022/05/20 13:08:49;;;;;;;6.70;3.53;;;41.20;38.40;;;;;;5025612;28;20409;-71
2022/05/20 13:11:20;;;;;;;6.67;3.00;;;41.10;38.80;;;;;;5017403;28;20890;-71
2022/05/20 13:13:49;;;;;;;5.87;3.73;;;40.10;39.00;;;;;;5024397;28;20448;-71
2022/05/20 13:16:16;;;;;;;5.93;2.97;;;40.20;39.00;;;;;;5024864;28;20453;-71
2022/05/20 13:18:44;;;;;;;9.20;2.80;;;40.60;39.80;;;;;;5024491;28;20470;-71
2022/05/20 13:21:17;;;;;;;5.77;3.93;;;40.90;38.10;;;;;;5025126;28;20445;-71
2022/05/20 13:23:46;;;;;;;5.57;2.87;;;41.00;38.20;;;;;;5024133;28;20441;-70
2022/05/20 13:26:30;;;;;;;6.17;3.30;;;41.60;37.40;;;;;;5024815;28;20413;-72
2022/05/20 13:29:12;;;;;;;7.00;3.30;;;41.30;39.60;;;;;;5024120;28;20417;-70
2022/05/20 13:31:38;;;;;;;8.30;3.20;;;41.80;36.80;;;;;;5024899;28;20428;-72
2022/05/20 13:34:04;;;;;;;7.03;3.63;;;42.80;37.10;;;;;;5024852;28;20437;-71
2022/05/20 13:36:42;;;;;;;4.23;3.13;;;43.90;35.10;;;;;;5024900;28;20225;-71
2022/05/20 13:39:18;;;;;;;3.87;3.30;;;42.80;35.40;;;;;;5024280;28;20167;-71
2022/05/20 13:41:45;;;;;;;3.83;2.90;;;42.30;35.40;;;;;;5024751;28;20412;-71
2022/05/20 13:44:12;;;;;;;5.03;3.07;;;42.50;35.90;;;;;;5023378;28;20299;-71
2022/05/20 13:49:33;;;;;;;3.67;2.97;;;42.70;35.50;;;;;;5025230;28;20281;-70
2022/05/20 13:52:02;;;;;;;6.43;3.20;;;42.00;35.40;;;;;;5024955;28;20670;-71
2022/05/20 13:54:35;;;;;;;7.70;3.30;;;42.00;36.10;;;;;;5024604;28;20206;-71
2022/05/20 13:57:03;;;;;;;4.50;2.93;;;42.60;37.00;;;;;;5023375;28;20248;-70